createdAt,value
2022-08-11T00:03:54.273Z,86.59
2022-08-11T00:09:00.724Z,85.57
2022-08-11T00:14:05.475Z,85.63
2022-08-11T00:19:07.832Z,85.90
2022-08-11T00:24:09.885Z,85.91
2022-08-11T00:29:12.594Z,86.31
2022-08-11T00:34:30.195Z,85.14
2022-08-11T00:39:42.538Z,85.33
2022-08-11T00:44:59.604Z,86.17
2022-08-11T00:50:10.338Z,85.29
2022-08-11T00:55:37.179Z,83.76
2022-08-11T01:01:15.998Z,84.16
2022-08-11T01:06:51.281Z,83.06
2022-08-11T01:12:17.380Z,84.82
2022-08-11T01:17:50.437Z,83.82
2022-08-11T01:23:17.385Z,84.90
2022-08-11T01:28:56.931Z,83.85
2022-08-11T01:34:04.880Z,83.80
2022-08-11T01:39:52.717Z,83.65
2022-08-11T01:45:17.537Z,82.68
2022-08-11T01:50:28.184Z,83.37
2022-08-11T01:55:58.076Z,83.45
2022-08-11T02:01:11.059Z,83.94
2022-08-11T02:06:31.560Z,83.44
2022-08-11T02:11:39.285Z,82.99
2022-08-11T02:16:42.817Z,83.45
2022-08-11T02:22:13.904Z,84.13
2022-08-11T02:27:30.921Z,83.68
2022-08-11T02:33:24.506Z,84.07
2022-08-11T02:38:46.747Z,83.00
2022-08-11T02:44:17.250Z,84.34
2022-08-11T02:50:06.164Z,83.94
2022-08-11T02:55:48.047Z,83.59
2022-08-11T03:00:49.960Z,82.73
2022-08-11T03:06:19.943Z,83.00
2022-08-11T03:11:40.230Z,83.92
2022-08-11T03:17:00.940Z,84.45
2022-08-11T03:22:06.626Z,84.30
2022-08-11T03:27:11.172Z,84.47
2022-08-11T03:32:29.943Z,84.62
2022-08-11T03:37:56.986Z,85.21
2022-08-11T03:43:03.937Z,84.39
2022-08-11T03:48:23.286Z,85.21
2022-08-11T03:54:03.199Z,84.02
2022-08-11T03:59:24.696Z,84.70
2022-08-11T04:04:31.656Z,84.20
2022-08-11T04:09:48.594Z,85.39
2022-08-11T04:15:18.436Z,86.20
2022-08-11T04:20:48.773Z,85.32
2022-08-11T04:26:15.987Z,84.93
2022-08-11T04:31:51.857Z,85.65
2022-08-11T04:37:29.092Z,85.24
2022-08-11T04:43:13.287Z,84.83
2022-08-11T04:49:05.826Z,84.97
2022-08-11T04:54:47.823Z,85.86
2022-08-11T05:00:30.897Z,85.77
2022-08-11T05:05:41.776Z,85.51
2022-08-11T05:11:20.084Z,85.87
2022-08-11T05:16:48.671Z,86.52
2022-08-11T05:22:16.299Z,87.03
2022-08-11T05:27:38.653Z,87.55
2022-08-11T05:33:02.286Z,87.18
2022-08-11T05:38:29.323Z,86.99
2022-08-11T05:44:21.710Z,87.24
2022-08-11T05:49:33.529Z,86.88
2022-08-11T05:55:06.162Z,86.93
2022-08-11T06:00:12.498Z,86.90
2022-08-11T06:05:16.337Z,86.73
2022-08-11T06:10:36.205Z,85.73
2022-08-11T06:15:46.569Z,84.86
2022-08-11T06:20:50.294Z,85.05
2022-08-11T06:25:56.683Z,84.01
2022-08-11T06:31:01.181Z,84.09
2022-08-11T06:36:24.244Z,83.55
2022-08-11T06:41:47.359Z,82.44
2022-08-11T06:46:53.294Z,82.46
2022-08-11T06:51:56.977Z,81.73
2022-08-11T06:57:29.914Z,80.93
2022-08-11T07:02:37.288Z,80.66
2022-08-11T07:08:34.901Z,80.18
2022-08-11T07:13:52.392Z,80.08
2022-08-11T07:19:20.290Z,79.67
2022-08-11T07:24:59.256Z,78.22
2022-08-11T07:30:09.374Z,77.58
2022-08-11T07:35:19.566Z,78.08
2022-08-11T07:40:24.995Z,76.68
2022-08-11T07:45:46.414Z,75.42
2022-08-11T07:51:07.570Z,74.65
2022-08-11T07:56:09.421Z,72.57
2022-08-11T08:01:41.199Z,71.49
2022-08-11T08:07:06.403Z,71.53
2022-08-11T08:12:29.584Z,69.45
2022-08-11T08:18:08.363Z,68.83
2022-08-11T08:23:14.248Z,68.14
2022-08-11T08:28:17.837Z,66.96
2022-08-11T08:33:27.943Z,64.49
2022-08-11T08:38:29.900Z,63.72
2022-08-11T08:43:48.473Z,63.63
2022-08-11T08:48:53.302Z,61.96
2022-08-11T08:54:11.784Z,62.14
2022-08-11T08:59:18.056Z,61.06
2022-08-11T09:04:22.471Z,59.81
2022-08-11T09:09:26.394Z,58.32
2022-08-11T09:14:57.430Z,56.80
2022-08-11T09:20:14.050Z,54.55
2022-08-11T09:25:40.548Z,53.93
2022-08-11T09:30:48.927Z,49.62
2022-08-11T09:35:52.608Z,50.20
2022-08-11T09:40:57.001Z,50.72
2022-08-11T09:46:01.710Z,50.67
2022-08-11T09:51:07.002Z,51.01
2022-08-11T09:56:41.784Z,50.16
2022-08-11T10:01:47.529Z,47.39
2022-08-11T10:07:04.612Z,48.09
2022-08-11T10:12:14.754Z,45.26
2022-08-11T10:17:21.827Z,48.19
2022-08-11T10:22:42.557Z,49.59
2022-08-11T10:28:17.603Z,48.78
2022-08-11T10:33:36.855Z,49.54
2022-08-11T10:38:45.841Z,49.51
2022-08-11T10:44:01.279Z,50.32
2022-08-11T10:49:07.221Z,49.33
2022-08-11T10:54:30.319Z,49.87
2022-08-11T10:59:34.224Z,49.47
2022-08-11T11:05:09.290Z,49.11
2022-08-11T11:10:11.507Z,49.76
2022-08-11T11:15:33.070Z,48.83
2022-08-11T11:20:59.101Z,49.37
2022-08-11T11:26:06.975Z,47.47
2022-08-11T11:31:29.821Z,47.01
2022-08-11T11:36:50.659Z,46.63
2022-08-11T11:41:59.564Z,47.21
2022-08-11T11:47:01.805Z,45.19
2022-08-11T11:52:06.946Z,43.55
2022-08-11T11:57:31.298Z,44.40
2022-08-11T12:02:36.460Z,41.80
2022-08-11T12:08:12.394Z,42.14
2022-08-11T12:13:45.136Z,41.82
2022-08-11T12:18:49.583Z,42.40
2022-08-11T12:24:15.104Z,43.28
2022-08-11T12:29:19.893Z,43.50
2022-08-11T12:34:24.723Z,44.17
2022-08-11T12:40:10.964Z,41.04
2022-08-11T12:45:29.992Z,39.46
2022-08-11T12:50:52.043Z,39.72
2022-08-11T12:56:19.900Z,37.87
2022-08-11T13:01:42.042Z,37.02
2022-08-11T13:06:43.967Z,36.66
2022-08-11T13:12:04.807Z,35.70
2022-08-11T13:17:21.824Z,35.84
2022-08-11T13:22:52.021Z,35.43
2022-08-11T13:27:57.042Z,35.52
2022-08-11T13:33:06.402Z,34.01
2022-08-11T13:38:19.157Z,35.21
2022-08-11T13:43:25.504Z,34.25
2022-08-11T13:48:28.344Z,33.48
2022-08-11T13:53:30.959Z,34.08
2022-08-11T13:58:39.525Z,32.45
2022-08-11T14:04:30.491Z,32.39
2022-08-11T14:09:12.904Z,33.96
2022-08-11T14:14:22.801Z,31.67
2022-08-11T14:19:26.314Z,32.12
2022-08-11T14:24:30.928Z,32.48
2022-08-11T14:29:34.441Z,30.89
2022-08-11T14:34:53.137Z,31.28
2022-08-11T14:40:21.540Z,30.90
2022-08-11T14:45:57.903Z,29.66
2022-08-11T14:51:00.763Z,29.14
2022-08-11T14:56:21.312Z,27.38
2022-08-11T15:01:41.987Z,27.04
2022-08-11T15:06:43.835Z,27.17
2022-08-11T15:12:07.383Z,26.25
2022-08-11T15:17:42.926Z,26.35
2022-08-11T15:23:07.087Z,25.55
2022-08-11T15:28:28.694Z,24.96
2022-08-11T15:33:54.632Z,24.47
2022-08-11T15:39:21.037Z,24.23
2022-08-11T15:45:01.688Z,24.26
2022-08-11T15:50:10.926Z,23.18
2022-08-11T15:55:24.696Z,23.68
2022-08-11T16:00:45.650Z,23.74
2022-08-11T16:05:53.138Z,23.19
2022-08-11T16:10:58.919Z,23.50
2022-08-11T16:16:17.280Z,24.60
2022-08-11T16:21:34.371Z,24.38
2022-08-11T16:27:11.200Z,23.81
2022-08-11T16:32:20.562Z,24.24
2022-08-11T16:37:45.282Z,24.32
2022-08-11T16:43:10.887Z,25.23
2022-08-11T16:48:36.520Z,28.70
2022-08-11T16:54:00.053Z,32.02
2022-08-11T16:59:18.496Z,34.48
2022-08-11T17:04:49.070Z,35.67
2022-08-11T17:10:39.716Z,36.97
2022-08-11T17:16:07.314Z,39.18
2022-08-11T17:21:17.852Z,39.69
2022-08-11T17:26:21.249Z,40.45
2022-08-11T17:31:45.173Z,42.91
2022-08-11T17:36:49.078Z,44.63
2022-08-11T17:42:13.112Z,46.15
2022-08-11T17:47:35.261Z,46.49
2022-08-11T17:53:06.241Z,47.29
2022-08-11T17:58:29.374Z,48.42
2022-08-11T18:03:39.256Z,49.37
2022-08-11T18:09:03.825Z,49.89
2022-08-11T18:14:26.626Z,50.63
2022-08-11T18:19:50.908Z,51.39
2022-08-11T18:25:20.927Z,51.86
2022-08-11T18:30:43.074Z,52.58
2022-08-11T18:36:09.786Z,53.87
2022-08-11T18:41:31.320Z,54.47
2022-08-11T18:46:55.330Z,54.77
2022-08-11T18:52:18.185Z,55.37
2022-08-11T18:57:49.737Z,56.41
2022-08-11T19:03:15.809Z,57.03
2022-08-11T19:08:40.235Z,58.03
2022-08-11T19:14:02.098Z,58.48
2022-08-11T19:19:25.453Z,59.29
2022-08-11T19:24:49.424Z,59.54
2022-08-11T19:30:14.283Z,60.91
2022-08-11T19:35:37.612Z,61.43
2022-08-11T19:40:58.653Z,62.79
2022-08-11T19:46:20.017Z,64.36
2022-08-11T19:51:40.998Z,64.97
2022-08-11T19:57:03.440Z,65.84
2022-08-11T20:02:29.191Z,66.34
2022-08-11T20:07:50.876Z,66.56
2022-08-11T20:13:21.233Z,65.85
2022-08-11T20:18:44.444Z,66.21
2022-08-11T20:24:08.453Z,66.16
2022-08-11T20:29:30.186Z,66.08
2022-08-11T20:34:50.839Z,66.38
2022-08-11T20:40:16.811Z,67.66
2022-08-11T20:45:53.550Z,67.50
2022-08-11T20:51:18.303Z,67.92
2022-08-11T20:56:41.973Z,68.29
2022-08-11T21:02:09.949Z,68.92
2022-08-11T21:07:30.876Z,69.48
2022-08-11T21:12:55.444Z,70.63
2022-08-11T21:18:28.291Z,71.18
2022-08-11T21:23:54.113Z,72.99
2022-08-11T21:29:18.427Z,73.67
2022-08-11T21:34:40.921Z,74.49
2022-08-11T21:40:02.283Z,74.64
2022-08-11T21:45:26.494Z,74.47
2022-08-11T21:50:47.663Z,75.19
2022-08-11T21:56:10.962Z,76.00
2022-08-11T22:01:34.461Z,75.29
2022-08-11T22:06:59.163Z,75.01
2022-08-11T22:12:29.578Z,74.89
2022-08-11T22:17:58.168Z,74.24
2022-08-11T22:23:19.594Z,73.41
2022-08-11T22:28:42.167Z,73.19
2022-08-11T22:34:04.845Z,72.93
2022-08-11T22:39:27.892Z,73.34
2022-08-11T22:44:54.376Z,73.53
2022-08-11T22:50:17.265Z,73.59
2022-08-11T22:55:41.925Z,73.32
2022-08-11T23:01:02.990Z,73.61
2022-08-11T23:06:23.437Z,73.32
2022-08-11T23:12:04.718Z,74.00
2022-08-11T23:17:34.645Z,73.24
2022-08-11T23:22:55.983Z,73.02
2022-08-11T23:28:20.232Z,72.92
2022-08-11T23:33:43.048Z,72.80
2022-08-11T23:39:03.452Z,71.90
2022-08-11T23:44:28.043Z,71.85
2022-08-11T23:49:49.503Z,72.28
2022-08-11T23:55:10.142Z,72.36
